Time;durP1;ratioP1;P1;durP2;ratioP2;P2;SDS_P1;SDS_P2;PMS_P1;PMS_P2;Temp;Humidity;BMP_temperature;BMP_pressure;BME280_temperature;BME280_humidity;BME280_pressure;Samples;Min_cycle;Max_cycle;Signal;HPM_P1;HPM_P2
2021/10/12 00:07:37;;;;;;;;;24.50;24.50;;;;;;;;2;274993205;274993205;-75
2021/10/12 00:16:14;;;;;;;;;52.50;44.00;;;;;;;;2;232097815;232097815;-75
2021/10/12 00:25:08;;;;;;;;;39.50;33.50;;;;;;;;2;275950288;275950288;-75
2021/10/12 00:33:42;;;;;;;;;47.50;41.00;;;;;;;;2;230177359;230177359;-75
2021/10/12 00:42:36;;;;;;;;;50.00;43.00;;;;;;;;2;275793043;275793043;-75
2021/10/12 00:51:15;;;;;;;;;64.00;52.00;;;;;;;;2;231565262;231565262;-75
2021/10/12 01:00:10;;;;;;;;;46.00;38.00;;;;;;;;2;275451263;275451263;-74
2021/10/12 01:08:52;;;;;;;;;43.50;38.50;;;;;;;;2;233608333;233608333;-75
2021/10/12 01:13:42;;;;;;;;;38.50;35.00;;;;;;;;2;278702612;278702612;-75
2021/10/12 01:22:41;;;;;;;;;31.50;27.50;;;;;;;;160301;30;262896450;-75
2021/10/12 01:28:35;;;;;;;;;128.50;128.50;;;;;;;;2;250439009;250439009;-75
2021/10/12 01:37:43;;;;;;;;;55.50;46.50;;;;;;;;2;277755714;277755714;-74
2021/10/12 01:45:50;;;;;;;;;82.00;77.00;;;;;;;;2;254748307;254748307;-75
2021/10/12 01:55:13;;;;;;;;;93.50;91.50;;;;;;;;2;286798158;286798158;-75
2021/10/12 02:03:23;;;;;;;;;67.00;57.50;;;;;;;;2;257871085;257871085;-75
2021/10/12 02:12:42;;;;;;;;;118.50;118.50;;;;;;;;2;284363206;284363206;-75
2021/10/12 02:20:35;;;;;;;;;53.00;45.00;;;;;;;;2;254709526;254709526;-74
2021/10/12 02:25:10;;;;;;;;;72.50;66.00;;;;;;;;2;258491398;258491398;-74
2021/10/12 02:27:59;;;;;;;;;75.00;69.50;;;;;;;;2124053;30;50931353;-75
2021/10/12 02:30:24;;;;;;;;;46.75;40.25;;;;;;;;2617338;30;24262722;-75
2021/10/12 02:32:49;;;;;;;;;3.25;3.25;;;;;;;;4677640;30;30499;-75
2021/10/12 02:35:15;;;;;;;;;6.33;6.00;;;;;;;;4665373;30;29369;-75
2021/10/12 02:37:40;;;;;;;;;5.00;4.00;;;;;;;;4665313;30;29632;-76
2021/10/12 02:40:06;;;;;;;;;40.33;36.00;;;;;;;;4665444;30;29473;-75
2021/10/12 02:42:31;;;;;;;;;43.75;38.75;;;;;;;;4664837;30;29930;-74
2021/10/12 02:44:56;;;;;;;;;49.33;42.33;;;;;;;;4679420;30;29945;-75
2021/10/12 02:47:22;;;;;;;;;21.33;18.67;;;;;;;;4676244;30;29941;-75
2021/10/12 02:49:47;;;;;;;;;34.67;33.33;;;;;;;;4669792;30;31838;-75
2021/10/12 02:52:12;;;;;;;;;18.00;14.75;;;;;;;;4666115;30;29861;-75
2021/10/12 02:54:38;;;;;;;;;11.25;11.25;;;;;;;;4665221;30;30856;-74
2021/10/12 02:57:03;;;;;;;;;9.75;9.75;;;;;;;;4664145;30;30415;-74
2021/10/12 02:59:28;;;;;;;;;12.75;11.50;;;;;;;;4664099;30;30028;-74
2021/10/12 03:01:53;;;;;;;;;12.50;12.50;;;;;;;;4664077;30;29879;-74
2021/10/12 03:04:19;;;;;;;;;12.75;8.75;;;;;;;;4663423;30;29965;-74
2021/10/12 03:06:44;;;;;;;;;10.50;9.00;;;;;;;;4666881;30;30029;-75
2021/10/12 03:09:09;;;;;;;;;11.50;10.00;;;;;;;;4679880;30;31432;-75
2021/10/12 03:11:35;;;;;;;;;13.75;11.00;;;;;;;;4666667;30;29969;-75
2021/10/12 03:14:00;;;;;;;;;11.50;10.50;;;;;;;;4671477;30;30115;-74
2021/10/12 03:16:26;;;;;;;;;13.50;13.00;;;;;;;;4667899;30;30042;-75
2021/10/12 03:18:51;;;;;;;;;14.50;11.00;;;;;;;;4681577;30;29870;-75
2021/10/12 03:21:18;;;;;;;;;21.25;18.75;;;;;;;;4668195;30;30048;-74
2021/10/12 03:23:43;;;;;;;;;9.50;9.50;;;;;;;;4664295;30;29929;-74
2021/10/12 03:26:08;;;;;;;;;13.75;11.25;;;;;;;;4669786;30;29538;-75
2021/10/12 03:28:34;;;;;;;;;17.67;16.67;;;;;;;;4664201;30;30308;-75
2021/10/12 03:30:59;;;;;;;;;23.75;21.50;;;;;;;;4664143;30;29708;-75
2021/10/12 03:33:25;;;;;;;;;9.25;7.75;;;;;;;;4667956;30;29653;-75
2021/10/12 03:36:10;;;;;;;;;16.75;15.50;;;;;;;;4679517;30;29492;-75
2021/10/12 03:38:35;;;;;;;;;16.50;16.00;;;;;;;;4663603;30;30117;-76
2021/10/12 03:41:00;;;;;;;;;25.00;22.00;;;;;;;;4671952;30;30051;-75
2021/10/12 03:43:26;;;;;;;;;12.00;12.00;;;;;;;;4675450;30;29964;-75
2021/10/12 03:45:51;;;;;;;;;15.75;11.75;;;;;;;;4676977;30;29833;-75
2021/10/12 03:48:16;;;;;;;;;19.25;18.00;;;;;;;;4677496;30;30009;-75
2021/10/12 03:50:42;;;;;;;;;6.67;6.67;;;;;;;;4663610;30;30055;-74
2021/10/12 03:53:07;;;;;;;;;7.25;6.75;;;;;;;;4664258;30;29876;-74
2021/10/12 03:55:33;;;;;;;;;13.75;11.00;;;;;;;;4670524;30;30278;-74
2021/10/12 03:57:58;;;;;;;;;8.25;8.25;;;;;;;;4670730;30;31108;-75
2021/10/12 04:00:23;;;;;;;;;5.00;4.00;;;;;;;;4664033;30;29913;-75
2021/10/12 04:02:49;;;;;;;;;4.00;4.00;;;;;;;;4680895;30;29968;-75
2021/10/12 04:05:15;;;;;;;;;6.00;5.00;;;;;;;;4680641;30;29884;-75
2021/10/12 04:07:41;;;;;;;;;6.00;3.75;;;;;;;;4665014;30;32437;-74
2021/10/12 04:10:06;;;;;;;;;6.25;5.00;;;;;;;;4688781;30;30014;-74
2021/10/12 04:12:32;;;;;;;;;3.75;3.75;;;;;;;;4687524;30;30074;-76
2021/10/12 04:14:57;;;;;;;;;7.00;4.00;;;;;;;;4691855;30;30086;-75
2021/10/12 04:17:22;;;;;;;;;6.75;4.00;;;;;;;;4688389;30;30185;-75
2021/10/12 04:19:48;;;;;;;;;6.25;4.00;;;;;;;;4695374;30;30165;-75
2021/10/12 04:22:13;;;;;;;;;5.50;3.75;;;;;;;;4680820;30;30027;-75
2021/10/12 04:24:39;;;;;;;;;11.75;7.25;;;;;;;;4686757;30;30167;-75
2021/10/12 04:27:04;;;;;;;;;5.50;5.00;;;;;;;;4673916;30;31471;-75
2021/10/12 04:30:16;;;;;;;;;;;;;;;;;;2740799;30;106376219;-75
2021/10/12 04:32:41;;;;;;;;;20.00;20.00;;;;;;;;722628;30;118754225;-75
2021/10/12 04:35:07;;;;;;;;;8.00;8.00;;;;;;;;4664532;30;30075;-76
2021/10/12 04:37:32;;;;;;;;;8.25;5.25;;;;;;;;4681294;30;29891;-76
2021/10/12 04:39:57;;;;;;;;;9.00;6.33;;;;;;;;4680360;30;30283;-76
2021/10/12 04:42:23;;;;;;;;;8.75;6.75;;;;;;;;4680220;30;29813;-75
2021/10/12 04:44:50;;;;;;;;;14.00;9.75;;;;;;;;4693808;30;30041;-75
2021/10/12 04:47:16;;;;;;;;;4.50;4.50;;;;;;;;4688725;30;30290;-75
2021/10/12 04:49:42;;;;;;;;;8.75;6.75;;;;;;;;4687077;30;30870;-75
2021/10/12 04:52:08;;;;;;;;;7.00;7.00;;;;;;;;4680451;30;30109;-75
2021/10/12 04:54:33;;;;;;;;;5.00;5.00;;;;;;;;4671606;30;32168;-75
2021/10/12 04:56:58;;;;;;;;;7.33;4.67;;;;;;;;4683208;30;30300;-76
2021/10/12 04:59:23;;;;;;;;;9.33;4.67;;;;;;;;4679970;30;30438;-76
2021/10/12 05:01:49;;;;;;;;;4.67;3.00;;;;;;;;4679814;30;30298;-75
2021/10/12 05:04:14;;;;;;;;;6.75;4.00;;;;;;;;4680788;30;30460;-76
2021/10/12 05:06:39;;;;;;;;;12.00;9.00;;;;;;;;4680878;30;30162;-76
2021/10/12 05:09:05;;;;;;;;;9.00;7.00;;;;;;;;4692180;30;31014;-76
2021/10/12 05:11:30;;;;;;;;;8.00;7.33;;;;;;;;4688716;30;30284;-76
2021/10/12 05:13:57;;;;;;;;;18.25;16.75;;;;;;;;4696879;30;30006;-77
2021/10/12 05:16:23;;;;;;;;;10.00;10.00;;;;;;;;4688546;30;29791;-76
2021/10/12 05:18:51;;;;;;;;;20.50;15.00;;;;;;;;4690210;30;30062;-76
2021/10/12 05:21:16;;;;;;;;;6.75;5.25;;;;;;;;4681619;30;30164;-75
2021/10/12 05:23:41;;;;;;;;;10.25;8.50;;;;;;;;4679954;30;30018;-76
2021/10/12 05:26:07;;;;;;;;;11.75;10.50;;;;;;;;4680934;30;30098;-76
2021/10/12 05:28:33;;;;;;;;;10.75;8.00;;;;;;;;4665185;30;31654;-76
2021/10/12 05:30:58;;;;;;;;;8.25;5.00;;;;;;;;4682584;30;30165;-75
2021/10/12 05:33:24;;;;;;;;;13.67;7.33;;;;;;;;4682738;30;29990;-77
2021/10/12 05:35:49;;;;;;;;;16.25;16.25;;;;;;;;4694014;30;30049;-76
2021/10/12 05:40:45;;;;;;;;;17.50;17.00;;;;;;;;4040906;30;12393648;-75
2021/10/12 05:45:59;;;;;;;;;;;;;;;;;;2;288081810;288081810;-75
2021/10/12 05:50:30;;;;;;;;;40.50;33.00;;;;;;;;10;13130098;26837758;-76
2021/10/12 05:58:30;;;;;;;;;32.33;31.00;;;;;;;;4423765;30;7817200;-76
2021/10/12 06:00:55;;;;;;;;;44.50;37.25;;;;;;;;4679668;30;29818;-75
2021/10/12 06:03:21;;;;;;;;;24.50;22.75;;;;;;;;4669721;30;85805;-75
2021/10/12 06:05:47;;;;;;;;;35.50;34.75;;;;;;;;4664219;30;29385;-81
2021/10/12 06:08:12;;;;;;;;;30.25;25.00;;;;;;;;4665613;30;29396;-76
2021/10/12 06:10:38;;;;;;;;;16.75;16.75;;;;;;;;4665412;30;29337;-75
2021/10/12 06:13:08;;;;;;;;;14.75;14.75;;;;;;;;4663610;30;29706;-75
2021/10/12 06:15:34;;;;;;;;;21.75;21.75;;;;;;;;4681707;30;29506;-76
2021/10/12 06:17:59;;;;;;;;;19.00;18.75;;;;;;;;4681572;30;29445;-76
2021/10/12 06:20:25;;;;;;;;;17.00;17.00;;;;;;;;4674897;30;30505;-76
2021/10/12 06:27:58;;;;;;;;;;;;;;;;;;2254106;30;234069870;-76
2021/10/12 06:30:53;;;;;;;;;11.00;11.00;;;;;;;;160796;30;169889237;-75
2021/10/12 06:38:59;;;;;;;;;48.50;41.00;;;;;;;;562657;30;195823329;-75
2021/10/12 06:44:17;;;;;;;;;22.00;20.00;;;;;;;;643047;30;175252001;-74
2021/10/12 06:46:43;;;;;;;;;71.75;60.50;;;;;;;;1219097;30;101239189;-74
2021/10/12 06:49:08;;;;;;;;;34.75;31.25;;;;;;;;4634551;30;1327931;-74
2021/10/12 06:51:34;;;;;;;;;34.25;32.00;;;;;;;;4665001;30;29456;-75
2021/10/12 06:53:59;;;;;;;;;38.50;33.50;;;;;;;;4676660;30;29373;-75
2021/10/12 06:56:24;;;;;;;;;49.25;41.25;;;;;;;;4671602;30;29833;-75
2021/10/12 06:58:50;;;;;;;;;22.00;21.50;;;;;;;;4664747;30;29733;-74
2021/10/12 07:01:15;;;;;;;;;52.67;42.00;;;;;;;;4671576;30;29241;-75
2021/10/12 07:03:40;;;;;;;;;37.25;32.75;;;;;;;;4682075;30;29790;-74
2021/10/12 07:06:06;;;;;;;;;25.67;23.67;;;;;;;;4681563;30;29836;-75
2021/10/12 07:08:31;;;;;;;;;21.50;19.00;;;;;;;;4681649;30;30994;-75
2021/10/12 07:10:56;;;;;;;;;28.50;24.50;;;;;;;;4684301;30;30140;-75
2021/10/12 07:13:29;;;;;;;;;21.00;21.00;;;;;;;;4694891;30;30125;-75
2021/10/12 07:15:55;;;;;;;;;15.75;15.25;;;;;;;;4694275;30;29973;-75
2021/10/12 07:18:21;;;;;;;;;26.50;22.25;;;;;;;;4697659;30;29989;-75
2021/10/12 07:20:46;;;;;;;;;22.25;20.25;;;;;;;;4681444;30;30171;-74
2021/10/12 07:23:11;;;;;;;;;27.50;25.75;;;;;;;;4681362;30;30250;-75
2021/10/12 07:25:37;;;;;;;;;18.50;17.25;;;;;;;;4693882;30;30055;-75
2021/10/12 07:28:02;;;;;;;;;41.67;36.67;;;;;;;;4698151;30;31277;-75
2021/10/12 07:30:27;;;;;;;;;38.25;35.50;;;;;;;;4692267;30;30320;-75
2021/10/12 07:32:52;;;;;;;;;21.25;20.00;;;;;;;;4695516;30;30088;-75
2021/10/12 07:35:18;;;;;;;;;39.33;37.00;;;;;;;;4692617;30;30120;-74
2021/10/12 07:37:43;;;;;;;;;21.67;19.33;;;;;;;;4695627;30;31078;-75
2021/10/12 07:40:10;;;;;;;;;26.00;24.00;;;;;;;;4681316;30;30082;-75
2021/10/12 07:42:35;;;;;;;;;27.00;27.00;;;;;;;;4666125;30;30082;-77
2021/10/12 07:45:01;;;;;;;;;29.00;26.00;;;;;;;;4680573;30;30051;-75
2021/10/12 07:47:26;;;;;;;;;23.75;22.00;;;;;;;;4692525;30;29998;-74
2021/10/12 07:49:53;;;;;;;;;19.75;17.50;;;;;;;;4685931;30;29990;-74
2021/10/12 07:52:19;;;;;;;;;23.75;18.00;;;;;;;;4684887;30;30200;-75
2021/10/12 07:57:28;;;;;;;;;30.25;24.75;;;;;;;;4681054;30;30510;-76
2021/10/12 07:59:53;;;;;;;;;30.33;28.33;;;;;;;;4691950;30;29841;-76
2021/10/12 08:02:19;;;;;;;;;44.33;35.67;;;;;;;;4685022;30;29974;-76
2021/10/12 08:04:44;;;;;;;;;40.33;34.67;;;;;;;;4692649;30;29820;-78
2021/10/12 08:07:10;;;;;;;;;23.00;19.25;;;;;;;;4693858;30;30094;-76
2021/10/12 08:09:36;;;;;;;;;33.25;31.75;;;;;;;;4681597;30;29806;-76
2021/10/12 08:12:02;;;;;;;;;24.00;20.25;;;;;;;;4669027;30;30134;-76
2021/10/12 08:14:28;;;;;;;;;21.00;19.00;;;;;;;;4688638;30;30376;-76
2021/10/12 08:16:53;;;;;;;;;23.00;19.75;;;;;;;;4680584;30;30492;-77
2021/10/12 08:19:18;;;;;;;;;32.75;29.00;;;;;;;;4689311;30;30613;-76
2021/10/12 08:21:44;;;;;;;;;25.33;20.33;;;;;;;;4669667;30;30320;-76
2021/10/12 08:24:11;;;;;;;;;31.75;29.25;;;;;;;;4673070;30;276354;-78
2021/10/12 08:26:36;;;;;;;;;50.25;41.25;;;;;;;;4684334;30;35719;-78
2021/10/12 08:29:02;;;;;;;;;50.00;37.50;;;;;;;;4679960;30;31228;-78
2021/10/12 08:31:27;;;;;;;;;31.25;28.00;;;;;;;;4673283;30;29828;-77
2021/10/12 08:33:52;;;;;;;;;27.25;23.25;;;;;;;;4690840;30;29825;-78
2021/10/12 08:36:18;;;;;;;;;28.25;24.50;;;;;;;;4680872;30;30199;-78
2021/10/12 08:38:44;;;;;;;;;20.00;16.75;;;;;;;;4694321;30;29791;-78
2021/10/12 08:41:09;;;;;;;;;40.00;35.75;;;;;;;;4696267;30;29993;-78
2021/10/12 08:43:35;;;;;;;;;30.00;29.25;;;;;;;;4687046;30;30093;-77
2021/10/12 08:46:01;;;;;;;;;43.00;37.75;;;;;;;;4697575;30;30096;-78
2021/10/12 08:48:27;;;;;;;;;24.25;23.00;;;;;;;;4695446;30;30570;-77
2021/10/12 08:50:53;;;;;;;;;37.25;33.75;;;;;;;;4691864;30;30017;-77
2021/10/12 08:53:18;;;;;;;;;26.75;21.75;;;;;;;;4688709;30;30053;-78
2021/10/12 08:55:43;;;;;;;;;45.75;38.25;;;;;;;;4693676;30;30095;-78
2021/10/12 08:58:11;;;;;;;;;31.75;25.00;;;;;;;;4694514;30;29985;-77
2021/10/12 09:00:37;;;;;;;;;23.75;21.75;;;;;;;;4689705;30;29976;-78
2021/10/12 09:03:28;;;;;;;;;54.25;45.25;;;;;;;;4683160;30;29981;-77
2021/10/12 09:06:00;;;;;;;;;50.50;40.50;;;;;;;;4683947;30;31171;-77
2021/10/12 09:08:27;;;;;;;;;32.50;31.25;;;;;;;;4695138;30;30421;-77
2021/10/12 09:10:53;;;;;;;;;45.25;38.25;;;;;;;;4684540;30;30229;-77
2021/10/12 09:13:18;;;;;;;;;35.00;30.75;;;;;;;;4697991;30;29998;-78
2021/10/12 09:16:02;;;;;;;;;32.50;31.25;;;;;;;;4682897;30;31252;-78
2021/10/12 09:18:46;;;;;;;;;27.50;22.50;;;;;;;;4683141;30;30459;-78
2021/10/12 09:21:13;;;;;;;;;30.00;28.00;;;;;;;;4688965;30;30058;-78
2021/10/12 09:23:41;;;;;;;;;23.25;20.75;;;;;;;;4688432;30;30338;-78
2021/10/12 09:26:23;;;;;;;;;27.75;21.25;;;;;;;;4694060;30;29910;-75
2021/10/12 09:28:49;;;;;;;;;19.50;18.50;;;;;;;;4683937;30;30446;-73
2021/10/12 09:31:15;;;;;;;;;37.00;32.75;;;;;;;;4699437;30;30215;-73
2021/10/12 09:33:49;;;;;;;;;24.00;24.00;;;;;;;;4676135;30;30431;-73
2021/10/12 09:36:31;;;;;;;;;36.50;33.25;;;;;;;;4697489;30;30497;-74
2021/10/12 09:38:57;;;;;;;;;26.25;25.50;;;;;;;;4690609;30;30555;-73
2021/10/12 09:41:24;;;;;;;;;37.00;32.75;;;;;;;;4685891;30;30535;-75
2021/10/12 09:43:49;;;;;;;;;33.75;32.00;;;;;;;;4696951;30;30474;-75
2021/10/12 09:46:30;;;;;;;;;43.00;37.67;;;;;;;;4685325;30;211278;-75
2021/10/12 09:49:08;;;;;;;;;31.75;29.00;;;;;;;;4695830;30;36459;-75
2021/10/12 09:51:33;;;;;;;;;37.50;32.50;;;;;;;;4675757;30;108513;-74
2021/10/12 09:53:58;;;;;;;;;31.25;29.00;;;;;;;;4684119;30;169835;-75
2021/10/12 09:56:24;;;;;;;;;31.33;26.33;;;;;;;;4679996;30;123352;-75
2021/10/12 09:58:49;;;;;;;;;39.00;33.00;;;;;;;;4693132;30;38130;-75
2021/10/12 10:01:14;;;;;;;;;53.25;41.75;;;;;;;;4650777;30;669531;-75
2021/10/12 10:03:39;;;;;;;;;43.00;34.33;;;;;;;;4686794;30;97294;-75
2021/10/12 10:06:12;;;;;;;;;49.25;37.75;;;;;;;;4687099;30;31725;-73
2021/10/12 10:08:39;;;;;;;;;43.25;36.00;;;;;;;;4683361;30;30330;-74
2021/10/12 10:11:05;;;;;;;;;29.25;26.25;;;;;;;;4699198;30;32697;-74
2021/10/12 10:13:33;;;;;;;;;43.00;36.00;;;;;;;;4667762;30;30194;-75
2021/10/12 10:15:59;;;;;;;;;32.50;29.75;;;;;;;;4683972;30;31947;-75
2021/10/12 10:19:28;;;;;;;;;;;;;;;;;;1653047;30;132204581;-81
2021/10/12 10:22:40;;;;;;;;;8.50;8.50;;;;;;;;15;7715702;13029049;-80
2021/10/12 10:28:46;;;;;;;;;;;;;;;;;;302468;30;257980666;-81
2021/10/12 10:33:25;;;;;;;;;9.50;9.50;;;;;;;;3;76115539;132349561;-81
2021/10/12 10:39:02;;;;;;;;;13.50;13.50;;;;;;;;4;37972551;128837646;-81
2021/10/12 10:48:38;;;;;;;;;18.50;18.50;;;;;;;;3;130034066;155882091;-81
2021/10/12 10:55:21;;;;;;;;;;;;;;;;;;2;261078407;261078407;-79
2021/10/12 11:01:41;;;;;;;;;6.00;6.00;;;;;;;;2;183408656;183408656;-79
2021/10/12 11:07:46;;;;;;;;;17.00;13.00;;;;;;;;2;191037268;191037268;-78
2021/10/12 11:14:29;;;;;;;;;17.50;13.50;;;;;;;;2;205664898;205664898;-77
2021/10/12 11:20:41;;;;;;;;;14.00;14.00;;;;;;;;2;188485665;188485665;-76
2021/10/12 11:27:46;;;;;;;;;10.50;10.50;;;;;;;;2;212035991;212035991;-76
2021/10/12 11:33:57;;;;;;;;;9.00;9.00;;;;;;;;2;190616209;190616209;-79
2021/10/12 11:41:27;;;;;;;;;15.50;15.50;;;;;;;;2;223274814;223274814;-78
2021/10/12 11:47:59;;;;;;;;;16.00;13.00;;;;;;;;2;196733556;196733556;-78
2021/10/12 11:56:13;;;;;;;;;24.00;23.50;;;;;;;;2;240705160;240705160;-79
2021/10/12 12:03:14;;;;;;;;;23.50;23.50;;;;;;;;2;227373167;227373167;-78
2021/10/12 12:09:48;;;;;;;;;25.00;23.50;;;;;;;;2;212038656;212038656;-79
2021/10/12 12:15:13;;;;;;;;;13.00;13.00;;;;;;;;2;174051342;174051342;-79
2021/10/12 12:21:04;;;;;;;;;10.50;10.50;;;;;;;;2;167896248;167896248;-78
2021/10/12 12:27:03;;;;;;;;;19.50;19.50;;;;;;;;2;168973587;168973587;-78
2021/10/12 12:33:41;;;;;;;;;11.00;11.00;;;;;;;;2;200229230;200229230;-78
2021/10/12 12:36:46;;;;;;;;;14.00;14.00;;;;;;;;2;182951945;182951945;-78
2021/10/12 12:44:24;;;;;;;;;19.50;19.50;;;;;;;;98981;30;227269314;-78
2021/10/12 12:51:29;;;;;;;;;7.00;7.00;;;;;;;;2;217688613;217688613;-77
2021/10/12 12:59:31;;;;;;;;;2.00;2.00;;;;;;;;2;235458458;235458458;-77
2021/10/12 13:06:41;;;;;;;;;2.00;2.00;;;;;;;;2;233622970;233622970;-78
2021/10/12 13:15:20;;;;;;;;;10.50;10.50;;;;;;;;2;264383723;264383723;-78
2021/10/12 13:22:02;;;;;;;;;6.50;6.50;;;;;;;;2;233564743;233564743;-77
2021/10/12 13:25:09;;;;;;;;;4.50;4.50;;;;;;;;2;173196783;173196783;-77
2021/10/12 13:28:42;;;;;;;;;10.00;10.00;;;;;;;;907980;30;36131124;-77
2021/10/12 13:31:08;;;;;;;;;6.50;5.00;;;;;;;;2677730;30;15400950;-77
2021/10/12 13:33:33;;;;;;;;;12.25;12.00;;;;;;;;4390319;30;4657203;-77
2021/10/12 13:35:59;;;;;;;;;3.50;2.00;;;;;;;;4682727;30;31270;-77
2021/10/12 13:38:24;;;;;;;;;15.75;14.00;;;;;;;;4687558;30;44316;-77
2021/10/12 13:40:49;;;;;;;;;9.25;5.25;;;;;;;;4663302;30;33585;-77
2021/10/12 13:43:15;;;;;;;;;15.75;15.50;;;;;;;;4684955;30;31653;-77
2021/10/12 13:45:40;;;;;;;;;8.75;8.75;;;;;;;;4657422;30;623379;-78
2021/10/12 13:48:06;;;;;;;;;7.50;4.50;;;;;;;;4663137;30;524111;-77
2021/10/12 13:51:41;;;;;;;;;4.50;4.50;;;;;;;;3588555;30;12502956;-78
2021/10/12 13:59:19;;;;;;;;;;;;;;;;;;3;119185825;233552689;-78
2021/10/12 14:04:33;;;;;;;;;10.50;10.50;;;;;;;;3;126247527;142826434;-77
2021/10/12 14:09:30;;;;;;;;;;;;;;;;;;2;283553972;283553972;-77
2021/10/12 14:12:42;;;;;;;;;17.00;17.00;;;;;;;;145214;30;13426325;-77
2021/10/12 14:15:07;;;;;;;;;;;;;;;;;;2502912;30;56189853;-77
2021/10/12 14:17:33;;;;;;;;;13.25;11.25;;;;;;;;917032;30;37131517;-77
2021/10/12 14:19:58;;;;;;;;;6.25;6.25;;;;;;;;1821732;30;13158316;-77
2021/10/12 14:31:09;;;;;;;;;;;;;;;;;;3331861;30;288082867;-77
2021/10/12 14:34:20;;;;;;;;;4.50;4.50;;;;;;;;2;184115595;184115595;-77
2021/10/12 14:43:08;;;;;;;;;6.00;6.00;;;;;;;;160702;30;272130437;-77
2021/10/12 14:51:36;;;;;;;;;9.00;7.00;;;;;;;;2;227196271;227196271;-77
2021/10/12 15:00:21;;;;;;;;;11.50;11.50;;;;;;;;2;269883663;269883663;-77
2021/10/12 15:08:51;;;;;;;;;12.50;12.50;;;;;;;;2;228052850;228052850;-76
2021/10/12 15:17:42;;;;;;;;;9.00;9.00;;;;;;;;2;274382846;274382846;-75
2021/10/12 15:26:21;;;;;;;;;23.00;21.50;;;;;;;;2;232084718;232084718;-75
2021/10/12 15:35:22;;;;;;;;;19.50;19.50;;;;;;;;2;279080314;279080314;-75
2021/10/12 15:43:59;;;;;;;;;16.00;16.00;;;;;;;;2;229461023;229461023;-75
2021/10/12 15:49:03;;;;;;;;;7.00;7.00;;;;;;;;2;279082329;279082329;-76
2021/10/12 15:51:28;;;;;;;;;17.00;15.75;;;;;;;;4678107;30;29895;-75
2021/10/12 15:53:54;;;;;;;;;6.75;6.75;;;;;;;;4686903;30;30041;-75
2021/10/12 15:56:19;;;;;;;;;24.00;23.50;;;;;;;;4685389;30;29904;-75
2021/10/12 15:58:44;;;;;;;;;18.50;17.75;;;;;;;;4680703;30;30309;-75
2021/10/12 16:01:09;;;;;;;;;21.25;18.25;;;;;;;;4681048;30;29995;-75
2021/10/12 16:03:35;;;;;;;;;16.50;15.75;;;;;;;;4669553;30;31357;-75
2021/10/12 16:06:00;;;;;;;;;14.50;12.75;;;;;;;;4681760;30;29946;-75
2021/10/12 16:12:17;;;;;;;;;;;;;;;;;;1938539;30;261077803;-76
2021/10/12 16:21:45;;;;;;;;;8.00;8.00;;;;;;;;2;288088685;288088685;-77
2021/10/12 16:33:14;;;;;;;;;8.50;8.50;;;;;;;;2;261076343;261076343;-77
2021/10/12 16:42:43;;;;;;;;;14.00;14.00;;;;;;;;2;288045677;288045677;-77
2021/10/12 16:50:59;;;;;;;;;7.50;7.50;;;;;;;;2;261079863;261079863;-77
2021/10/12 17:00:26;;;;;;;;;12.50;12.50;;;;;;;;2;288086185;288086185;-78
2021/10/12 17:08:42;;;;;;;;;10.00;10.00;;;;;;;;2;261075302;261075302;-77
2021/10/12 17:18:11;;;;;;;;;15.50;15.50;;;;;;;;2;288085872;288085872;-77
2021/10/12 17:26:27;;;;;;;;;13.50;13.50;;;;;;;;2;261078525;261078525;-77
2021/10/12 17:35:54;;;;;;;;;18.00;18.00;;;;;;;;2;288087746;288087746;-77
2021/10/12 17:44:10;;;;;;;;;18.50;18.50;;;;;;;;2;261082429;261082429;-75
2021/10/12 17:53:40;;;;;;;;;26.50;26.50;;;;;;;;2;288085542;288085542;-75
2021/10/12 18:01:56;;;;;;;;;13.50;13.50;;;;;;;;2;261079754;261079754;-75
2021/10/12 18:11:28;;;;;;;;;27.00;27.00;;;;;;;;2;288086432;288086432;-75
2021/10/12 18:19:43;;;;;;;;;9.00;9.00;;;;;;;;2;261080731;261080731;-76
2021/10/12 18:29:13;;;;;;;;;17.00;17.00;;;;;;;;2;288085683;288085683;-76
2021/10/12 18:37:29;;;;;;;;;11.00;11.00;;;;;;;;2;261078571;261078571;-75
2021/10/12 18:41:22;;;;;;;;;3.50;3.50;;;;;;;;2;232282742;232282742;-75
2021/10/12 18:43:47;;;;;;;;;14.00;14.00;;;;;;;;1464479;30;48449252;-75
2021/10/12 18:46:13;;;;;;;;;11.00;11.00;;;;;;;;4615744;30;1462544;-75
2021/10/12 18:48:38;;;;;;;;;12.00;11.75;;;;;;;;4689285;30;30152;-75
2021/10/12 18:51:26;;;;;;;;;7.50;7.50;;;;;;;;4269593;30;9885481;-75
2021/10/12 18:53:51;;;;;;;;;12.75;12.25;;;;;;;;3767572;30;14912085;-76
2021/10/12 18:56:17;;;;;;;;;11.50;11.25;;;;;;;;4662966;30;734539;-75
2021/10/12 18:58:42;;;;;;;;;14.00;14.00;;;;;;;;4479236;30;4380711;-76
2021/10/12 19:01:08;;;;;;;;;22.50;21.00;;;;;;;;4645002;30;904175;-76
2021/10/12 19:03:43;;;;;;;;;;;;;;;;;;3797855;30;37265227;-75
2021/10/12 19:06:08;;;;;;;;;16.00;15.00;;;;;;;;4682198;30;29553;-75
2021/10/12 19:08:34;;;;;;;;;11.25;10.25;;;;;;;;4694364;30;29438;-75
2021/10/12 19:11:06;;;;;;;;;16.00;14.50;;;;;;;;4697844;30;29687;-75
2021/10/12 19:13:33;;;;;;;;;19.50;18.25;;;;;;;;4685954;30;29481;-75
2021/10/12 19:15:59;;;;;;;;;14.25;11.75;;;;;;;;4699649;30;29501;-75
2021/10/12 19:18:24;;;;;;;;;10.75;10.00;;;;;;;;4685291;30;29507;-75
2021/10/12 19:20:49;;;;;;;;;9.50;9.25;;;;;;;;4682937;30;29666;-75
2021/10/12 19:23:15;;;;;;;;;11.75;11.50;;;;;;;;4673134;30;29507;-75
2021/10/12 19:34:31;;;;;;;;;6.00;6.00;;;;;;;;4348352;30;279082145;-75
2021/10/12 19:43:13;;;;;;;;;;;;;;;;;;2;234069970;234069970;-75
2021/10/12 19:49:05;;;;;;;;;4.50;4.50;;;;;;;;2;279082815;279082815;-75
2021/10/12 19:53:45;;;;;;;;;15.00;14.50;;;;;;;;161383;30;140578381;-75
2021/10/12 20:11:10;;;;;;;;;2.00;2.00;;;;;;;;2;249727581;249727581;-75
2021/10/12 20:27:45;;;;;;;;;27.00;25.50;;;;;;;;3;115858434;240556311;-74
2021/10/12 20:37:42;;;;;;;;;10.00;10.00;;;;;;;;161479;30;236359402;-75
2021/10/12 20:46:44;;;;;;;;;;;;;;;;;;2;288083864;288083864;-75
2021/10/12 20:57:15;;;;;;;;;8.00;8.00;;;;;;;;619614;30;266865608;-74
2021/10/12 21:04:54;;;;;;;;;11.50;11.50;;;;;;;;2;240734248;240734248;-75
2021/10/12 21:13:43;;;;;;;;;37.50;34.00;;;;;;;;2;269389634;269389634;-74
2021/10/12 21:21:26;;;;;;;;;29.00;29.00;;;;;;;;2;242758663;242758663;-74
2021/10/12 21:30:16;;;;;;;;;21.50;21.50;;;;;;;;2;268098569;268098569;-74
2021/10/12 21:38:07;;;;;;;;;27.00;26.50;;;;;;;;2;245770350;245770350;-73
2021/10/12 21:40:50;;;;;;;;;32.00;29.00;;;;;;;;161533;30;100652862;-73
2021/10/12 21:43:16;;;;;;;;;40.00;35.25;;;;;;;;3077598;30;50012290;-74
2021/10/12 21:45:41;;;;;;;;;26.00;26.00;;;;;;;;4560366;30;4387800;-74
2021/10/12 21:48:06;;;;;;;;;29.33;29.00;;;;;;;;4701948;30;29488;-74
2021/10/12 21:50:33;;;;;;;;;38.33;35.00;;;;;;;;4700085;30;29398;-73
2021/10/12 21:52:58;;;;;;;;;28.50;26.50;;;;;;;;4695123;30;29633;-75
2021/10/12 21:56:35;;;;;;;;;;;;;;;;;;3580041;30;105589977;-75
2021/10/12 21:59:02;;;;;;;;;21.50;21.50;;;;;;;;3046417;30;14922034;-75
2021/10/12 22:02:18;;;;;;;;;24.50;24.50;;;;;;;;1739203;30;50810361;-75
2021/10/12 22:04:43;;;;;;;;;24.00;22.75;;;;;;;;4686829;30;32501;-75
2021/10/12 22:07:09;;;;;;;;;14.25;14.25;;;;;;;;4686101;30;30082;-75
2021/10/12 22:09:35;;;;;;;;;26.67;25.67;;;;;;;;4668318;30;30032;-75
2021/10/12 22:12:01;;;;;;;;;21.50;20.75;;;;;;;;4666724;30;30300;-75
2021/10/12 22:14:27;;;;;;;;;59.50;49.75;;;;;;;;4691973;30;30151;-75
2021/10/12 22:16:53;;;;;;;;;33.00;31.50;;;;;;;;4685636;30;29944;-75
2021/10/12 22:19:18;;;;;;;;;37.00;34.00;;;;;;;;4682751;30;30142;-76
2021/10/12 22:21:43;;;;;;;;;32.00;30.00;;;;;;;;4682370;30;30424;-75
2021/10/12 22:24:09;;;;;;;;;41.50;37.25;;;;;;;;4686040;30;30153;-76
2021/10/12 22:26:34;;;;;;;;;35.00;33.67;;;;;;;;4697895;30;29361;-76
2021/10/12 22:28:59;;;;;;;;;30.00;28.50;;;;;;;;4686252;30;29507;-76
2021/10/12 22:31:25;;;;;;;;;25.25;23.50;;;;;;;;4698336;30;29421;-76
2021/10/12 22:33:50;;;;;;;;;43.75;38.00;;;;;;;;3956032;30;22360170;-76
2021/10/12 22:36:15;;;;;;;;;35.33;33.67;;;;;;;;4673704;30;309437;-76
2021/10/12 22:38:41;;;;;;;;;41.33;37.33;;;;;;;;4676727;30;221832;-76
2021/10/12 22:42:46;;;;;;;;;22.50;22.00;;;;;;;;4390219;30;107679043;-76
2021/10/12 22:45:11;;;;;;;;;27.00;23.50;;;;;;;;4699290;30;29472;-75
2021/10/12 22:47:37;;;;;;;;;21.33;21.33;;;;;;;;4693186;30;29300;-75
2021/10/12 22:50:06;;;;;;;;;26.67;25.33;;;;;;;;4698322;30;30186;-75
2021/10/12 22:52:32;;;;;;;;;28.50;28.50;;;;;;;;4691160;30;30022;-75
2021/10/12 22:54:57;;;;;;;;;34.75;31.75;;;;;;;;4697853;30;30414;-75
2021/10/12 22:57:26;;;;;;;;;36.33;33.00;;;;;;;;4687808;30;29937;-75
2021/10/12 22:59:51;;;;;;;;;47.25;40.25;;;;;;;;4687163;30;29616;-75
2021/10/12 23:02:16;;;;;;;;;45.50;38.50;;;;;;;;4690418;30;30031;-75